createdAt,value
2022-08-26T00:01:44.304Z,79.56
2022-08-26T00:04:13.260Z,79.61
2022-08-26T00:06:42.382Z,79.91
2022-08-26T00:09:16.011Z,80.05
2022-08-26T00:11:46.624Z,80.25
2022-08-26T00:14:15.217Z,80.17
2022-08-26T00:16:47.466Z,80.44
2022-08-26T00:19:16.875Z,80.84
2022-08-26T00:21:44.042Z,81.07
2022-08-26T00:24:11.239Z,81.07
2022-08-26T00:26:39.254Z,81.32
2022-08-26T00:29:08.548Z,81.45
2022-08-26T00:31:36.983Z,81.73
2022-08-26T00:34:04.821Z,81.58
2022-08-26T00:36:32.275Z,81.76
2022-08-26T00:38:59.578Z,81.76
2022-08-26T00:41:28.804Z,82.07
2022-08-26T00:43:55.783Z,82.12
2022-08-26T00:46:29.353Z,82.27
2022-08-26T00:49:12.238Z,82.43
2022-08-26T00:51:54.699Z,82.31
2022-08-26T00:54:26.775Z,82.66
2022-08-26T00:56:59.855Z,82.83
2022-08-26T00:59:29.192Z,82.96
2022-08-26T01:02:02.710Z,83.72
2022-08-26T01:04:32.459Z,83.50
2022-08-26T01:07:00.486Z,84.04
2022-08-26T01:09:28.464Z,84.44
2022-08-26T01:11:59.713Z,84.54
2022-08-26T01:14:34.322Z,84.69
2022-08-26T01:17:05.976Z,84.86
2022-08-26T01:19:45.049Z,85.05
2022-08-26T01:22:31.353Z,85.31
2022-08-26T01:25:01.065Z,85.65
2022-08-26T01:27:32.902Z,86.06
2022-08-26T01:30:01.906Z,86.29
2022-08-26T01:32:29.821Z,86.20
2022-08-26T01:34:57.183Z,86.51
2022-08-26T01:37:28.775Z,86.55
2022-08-26T01:39:57.312Z,86.87
2022-08-26T01:42:26.185Z,87.25
2022-08-26T01:45:01.404Z,87.47
2022-08-26T01:47:31.063Z,87.89
2022-08-26T01:50:02.881Z,88.19
2022-08-26T01:52:32.770Z,88.22
2022-08-26T01:55:00.925Z,88.31
2022-08-26T01:57:28.754Z,88.50
2022-08-26T02:00:00.087Z,88.74
2022-08-26T02:02:27.785Z,88.76
2022-08-26T02:05:02.258Z,88.88
2022-08-26T02:07:30.394Z,89.36
2022-08-26T02:10:00.345Z,89.09
2022-08-26T02:12:27.849Z,89.27
2022-08-26T02:15:00.795Z,89.63
2022-08-26T02:17:35.696Z,89.89
2022-08-26T02:20:03.516Z,90.04
2022-08-26T02:22:31.783Z,90.34
2022-08-26T02:25:01.438Z,90.56
2022-08-26T02:27:35.033Z,90.63
2022-08-26T02:30:19.109Z,90.91
2022-08-26T02:32:46.885Z,91.07
2022-08-26T02:35:20.498Z,91.26
2022-08-26T02:37:49.979Z,91.32
2022-08-26T02:40:24.221Z,91.61
2022-08-26T02:42:53.047Z,91.77
2022-08-26T02:45:23.878Z,92.13
2022-08-26T02:47:52.505Z,92.12
2022-08-26T02:50:20.658Z,92.10
2022-08-26T02:52:48.375Z,92.29
2022-08-26T02:55:15.697Z,92.57
2022-08-26T02:57:43.039Z,92.63
2022-08-26T03:00:14.483Z,92.63
2022-08-26T03:02:42.066Z,92.79
2022-08-26T03:05:10.106Z,92.93
2022-08-26T03:07:37.657Z,93.28
2022-08-26T03:10:08.502Z,93.93
2022-08-26T03:12:36.196Z,93.65
2022-08-26T03:15:17.402Z,93.71
2022-08-26T03:17:47.803Z,93.86
2022-08-26T03:20:17.423Z,94.01
2022-08-26T03:22:45.609Z,94.52
2022-08-26T03:25:16.172Z,94.68
2022-08-26T03:27:43.351Z,94.97
2022-08-26T03:30:31.257Z,94.95
2022-08-26T03:32:58.655Z,95.18
2022-08-26T03:35:25.827Z,94.93
2022-08-26T03:37:54.072Z,95.17
2022-08-26T03:40:21.645Z,95.07
2022-08-26T03:42:50.742Z,95.46
2022-08-26T03:45:18.594Z,95.68
2022-08-26T03:47:47.504Z,95.76
2022-08-26T03:50:22.635Z,95.97
2022-08-26T03:52:52.797Z,95.91
2022-08-26T03:55:23.689Z,95.79
2022-08-26T03:57:51.610Z,95.91
2022-08-26T04:00:19.153Z,95.95
2022-08-26T04:02:51.117Z,97.98
2022-08-26T04:05:22.767Z,100.00
2022-08-26T04:07:50.612Z,98.90
2022-08-26T04:10:22.114Z,96.26
2022-08-26T04:12:56.013Z,93.45
2022-08-26T04:15:27.013Z,91.31
2022-08-26T04:17:53.927Z,90.00
2022-08-26T04:20:23.338Z,88.41
2022-08-26T04:22:50.780Z,87.11
2022-08-26T04:25:18.622Z,85.96
2022-08-26T04:27:48.315Z,85.30
2022-08-26T04:30:15.890Z,84.87
2022-08-26T04:32:43.750Z,85.06
2022-08-26T04:35:10.769Z,85.77
2022-08-26T04:37:37.746Z,86.73
2022-08-26T04:40:06.470Z,88.08
2022-08-26T04:42:33.715Z,89.60
2022-08-26T04:45:05.717Z,91.10
2022-08-26T04:47:33.014Z,91.85
2022-08-26T04:50:00.252Z,92.84
2022-08-26T04:52:29.181Z,93.61
2022-08-26T04:54:57.894Z,93.83
2022-08-26T04:57:24.851Z,94.54
2022-08-26T04:59:51.769Z,95.12
2022-08-26T05:02:19.287Z,95.75
2022-08-26T05:04:46.353Z,96.00
2022-08-26T05:07:13.319Z,96.24
2022-08-26T05:09:40.764Z,96.62
2022-08-26T05:12:08.000Z,96.78
2022-08-26T05:14:36.099Z,98.22
2022-08-26T05:17:03.915Z,99.67
2022-08-26T05:19:31.658Z,98.86
2022-08-26T05:21:59.864Z,96.25
2022-08-26T05:24:26.754Z,93.47
2022-08-26T05:26:54.492Z,90.54
2022-08-26T05:29:24.013Z,87.67
2022-08-26T05:31:52.235Z,86.51
2022-08-26T05:34:19.982Z,85.42
2022-08-26T05:36:47.346Z,84.16
2022-08-26T05:39:14.222Z,83.24
2022-08-26T05:41:43.124Z,82.16
2022-08-26T05:44:15.504Z,81.98
2022-08-26T05:46:44.666Z,81.09
2022-08-26T05:49:14.077Z,80.76
2022-08-26T05:51:45.178Z,80.60
2022-08-26T05:54:13.563Z,81.11
2022-08-26T05:56:40.485Z,81.78
2022-08-26T05:59:15.154Z,83.71
2022-08-26T06:01:43.755Z,84.33
2022-08-26T06:04:12.094Z,85.27
2022-08-26T06:06:41.636Z,85.72
2022-08-26T06:09:11.085Z,86.23
2022-08-26T06:11:38.804Z,86.43
2022-08-26T06:14:07.826Z,86.71
2022-08-26T06:16:40.906Z,86.30
2022-08-26T06:19:12.048Z,86.38
2022-08-26T06:21:41.328Z,87.03
2022-08-26T06:24:32.971Z,87.61
2022-08-26T06:27:09.534Z,87.86
2022-08-26T06:29:38.810Z,86.89
2022-08-26T06:32:06.744Z,85.97
2022-08-26T06:34:34.094Z,86.00
2022-08-26T06:37:06.296Z,85.73
2022-08-26T06:39:33.779Z,85.55
2022-08-26T06:42:02.754Z,85.60
2022-08-26T06:44:33.953Z,85.59
2022-08-26T06:47:02.133Z,85.54
2022-08-26T06:49:29.042Z,85.06
2022-08-26T06:52:00.090Z,84.25
2022-08-26T06:54:30.694Z,83.46
2022-08-26T06:56:57.657Z,83.28
2022-08-26T06:59:25.598Z,83.24
2022-08-26T07:01:53.487Z,82.87
2022-08-26T07:04:23.202Z,82.23
2022-08-26T07:06:53.569Z,81.07
2022-08-26T07:09:27.054Z,80.44
2022-08-26T07:11:58.513Z,79.36
2022-08-26T07:14:26.497Z,78.47
2022-08-26T07:16:54.391Z,76.96
2022-08-26T07:19:30.281Z,77.03
2022-08-26T07:22:01.697Z,77.58
2022-08-26T07:24:29.414Z,77.35
2022-08-26T07:27:06.142Z,77.52
2022-08-26T07:29:35.026Z,78.31
2022-08-26T07:32:03.314Z,78.27
2022-08-26T07:34:32.289Z,78.69
2022-08-26T07:37:00.681Z,78.65
2022-08-26T07:39:28.744Z,79.41
2022-08-26T07:42:01.333Z,78.94
2022-08-26T07:44:29.547Z,78.49
2022-08-26T07:46:56.521Z,78.29
2022-08-26T07:49:26.713Z,77.61
2022-08-26T07:51:55.411Z,77.35
2022-08-26T07:54:26.889Z,75.64
2022-08-26T07:56:54.699Z,75.59
2022-08-26T07:59:23.382Z,74.89
2022-08-26T08:01:50.590Z,74.22
2022-08-26T08:04:21.877Z,74.20
2022-08-26T08:06:54.561Z,73.50
2022-08-26T08:09:22.400Z,73.83
2022-08-26T08:11:49.864Z,74.04
2022-08-26T08:14:20.484Z,74.80
2022-08-26T08:16:53.603Z,74.76
2022-08-26T08:19:23.134Z,75.46
2022-08-26T08:21:50.930Z,74.74
2022-08-26T08:24:18.437Z,74.97
2022-08-26T08:26:45.970Z,75.07
2022-08-26T08:29:13.124Z,76.00
2022-08-26T08:31:57.969Z,75.82
2022-08-26T08:34:28.709Z,75.95
2022-08-26T08:36:57.261Z,76.48
2022-08-26T08:39:25.974Z,76.44
2022-08-26T08:42:23.430Z,74.89
2022-08-26T08:44:56.034Z,74.01
2022-08-26T08:47:41.999Z,72.77
2022-08-26T08:50:27.704Z,70.95
2022-08-26T08:53:13.632Z,69.61
2022-08-26T08:56:28.627Z,68.24
2022-08-26T08:59:19.610Z,67.48
2022-08-26T09:02:14.418Z,66.90
2022-08-26T09:05:23.928Z,66.57
2022-08-26T09:08:12.549Z,65.92
2022-08-26T09:10:49.779Z,65.24
2022-08-26T09:13:25.197Z,65.92
2022-08-26T09:16:07.486Z,65.50
2022-08-26T09:19:23.229Z,65.09
2022-08-26T09:22:00.195Z,65.04
2022-08-26T09:24:31.017Z,64.48
2022-08-26T09:26:59.116Z,64.07
2022-08-26T09:29:31.066Z,63.75
2022-08-26T09:32:24.156Z,64.43
2022-08-26T09:35:09.063Z,63.95
2022-08-26T09:40:28.287Z,62.68
2022-08-26T09:43:22.152Z,62.87
2022-08-26T09:45:59.387Z,63.59
2022-08-26T09:48:40.604Z,63.09
2022-08-26T09:51:31.724Z,63.12
2022-08-26T09:54:03.924Z,63.00
2022-08-26T09:56:39.733Z,62.41
2022-08-26T09:59:11.932Z,62.46
2022-08-26T10:01:42.526Z,62.20
2022-08-26T10:04:18.665Z,61.72
2022-08-26T10:07:07.457Z,61.75
2022-08-26T10:09:39.286Z,61.65
2022-08-26T10:12:15.336Z,62.37
2022-08-26T10:14:54.021Z,62.69
2022-08-26T10:17:46.371Z,63.32
2022-08-26T10:20:22.826Z,62.84
2022-08-26T10:23:12.184Z,62.88
2022-08-26T10:25:55.225Z,63.38
2022-08-26T10:28:44.409Z,63.35
2022-08-26T10:31:28.436Z,61.41
2022-08-26T10:33:58.894Z,60.98
2022-08-26T10:39:56.825Z,61.18
2022-08-26T10:42:39.194Z,60.29
2022-08-26T10:45:15.287Z,60.23
2022-08-26T10:49:10.713Z,59.92
2022-08-26T10:51:47.994Z,58.07
2022-08-26T10:55:14.310Z,58.15
2022-08-26T10:58:14.691Z,58.25
2022-08-26T11:01:24.033Z,57.41
2022-08-26T11:04:05.304Z,57.00
2022-08-26T11:06:32.696Z,56.71
2022-08-26T11:09:04.051Z,56.97
2022-08-26T11:11:40.431Z,56.48
2022-08-26T11:14:28.520Z,56.14
2022-08-26T11:16:59.735Z,56.28
2022-08-26T11:19:59.584Z,55.99
2022-08-26T11:22:47.572Z,55.24
2022-08-26T11:25:29.978Z,55.43
2022-08-26T11:28:01.106Z,54.02
2022-08-26T11:30:41.009Z,54.08
2022-08-26T11:33:09.078Z,53.89
2022-08-26T11:35:37.322Z,55.38
2022-08-26T11:38:20.596Z,55.30
2022-08-26T11:41:10.991Z,56.56
2022-08-26T11:43:40.727Z,57.19
2022-08-26T11:46:13.003Z,58.20
2022-08-26T11:48:42.923Z,58.40
2022-08-26T11:51:21.601Z,58.60
2022-08-26T11:53:49.645Z,58.88
2022-08-26T11:56:31.660Z,58.97
2022-08-26T11:59:03.393Z,58.08
2022-08-26T12:01:35.750Z,57.92
2022-08-26T12:04:06.294Z,58.01
2022-08-26T12:06:48.017Z,58.90
2022-08-26T12:09:25.875Z,57.96
2022-08-26T12:11:54.168Z,57.43
2022-08-26T12:14:27.704Z,58.18
2022-08-26T12:16:55.234Z,58.99
2022-08-26T12:19:28.795Z,58.75
2022-08-26T12:22:20.952Z,57.96
2022-08-26T12:24:58.662Z,58.87
2022-08-26T12:27:29.830Z,57.69
2022-08-26T12:30:06.760Z,58.56
2022-08-26T12:32:57.279Z,58.42
2022-08-26T12:35:25.015Z,58.26
2022-08-26T12:37:54.019Z,57.75
2022-08-26T12:40:43.135Z,57.14
2022-08-26T12:43:15.896Z,57.44
2022-08-26T12:45:59.899Z,54.78
2022-08-26T12:48:32.863Z,54.61
2022-08-26T12:51:00.919Z,53.90
2022-08-26T12:53:34.562Z,54.21
2022-08-26T12:56:06.266Z,54.50
2022-08-26T12:58:39.500Z,54.81
2022-08-26T13:01:06.686Z,56.03
2022-08-26T13:03:45.434Z,55.16
2022-08-26T13:06:25.905Z,54.33
2022-08-26T13:08:57.662Z,54.81
2022-08-26T13:11:34.040Z,54.12
2022-08-26T13:14:09.352Z,53.69
2022-08-26T13:16:39.313Z,53.31
2022-08-26T13:19:11.754Z,53.56
2022-08-26T13:21:57.573Z,52.44
2022-08-26T13:24:44.790Z,51.03
2022-08-26T13:27:14.322Z,50.10
2022-08-26T13:29:41.955Z,50.01
2022-08-26T13:32:09.867Z,50.41
2022-08-26T13:34:38.724Z,51.64
2022-08-26T13:37:07.102Z,51.41
2022-08-26T13:39:34.326Z,51.62
2022-08-26T13:42:01.387Z,52.31
2022-08-26T13:44:28.286Z,52.71
2022-08-26T13:46:55.205Z,53.35
2022-08-26T13:49:22.660Z,53.93
2022-08-26T13:51:49.654Z,53.83
2022-08-26T13:54:16.551Z,54.55
2022-08-26T13:56:43.683Z,54.17
2022-08-26T13:59:10.626Z,52.41
2022-08-26T14:01:39.731Z,51.22
2022-08-26T14:04:07.054Z,51.44
2022-08-26T14:06:34.033Z,53.35
2022-08-26T14:09:00.995Z,55.95
2022-08-26T14:11:29.642Z,56.79
2022-08-26T14:14:08.524Z,57.19
2022-08-26T14:16:38.875Z,57.16
2022-08-26T14:19:25.739Z,56.77
2022-08-26T14:21:52.894Z,56.31
2022-08-26T14:24:20.417Z,56.02
2022-08-26T14:26:48.457Z,55.51
2022-08-26T14:29:16.786Z,54.24
2022-08-26T14:31:44.333Z,54.16
2022-08-26T14:34:13.960Z,54.40
2022-08-26T14:36:40.940Z,54.47
2022-08-26T14:39:11.238Z,55.12
2022-08-26T14:41:54.323Z,56.00
2022-08-26T14:44:31.190Z,56.81
2022-08-26T14:47:02.248Z,58.01
2022-08-26T14:49:31.082Z,60.71
2022-08-26T14:51:58.023Z,62.07
2022-08-26T14:54:26.431Z,64.15
2022-08-26T14:57:07.680Z,66.32
2022-08-26T14:59:39.827Z,67.10
2022-08-26T15:02:10.540Z,68.69
2022-08-26T15:04:41.424Z,71.31
2022-08-26T15:07:09.370Z,71.25
2022-08-26T15:09:39.990Z,72.35
2022-08-26T15:12:07.066Z,74.26
2022-08-26T15:14:34.539Z,76.10
2022-08-26T15:17:01.531Z,76.95
2022-08-26T15:19:28.614Z,79.08
2022-08-26T15:21:56.599Z,80.94
2022-08-26T15:24:25.974Z,79.74
2022-08-26T15:26:53.229Z,84.90
2022-08-26T15:29:22.192Z,88.14
2022-08-26T15:31:49.116Z,89.79
2022-08-26T15:34:17.169Z,90.29
2022-08-26T15:36:46.684Z,89.46
2022-08-26T15:39:16.248Z,87.19
2022-08-26T15:41:43.235Z,85.13
2022-08-26T15:44:14.284Z,83.12
2022-08-26T15:46:42.500Z,85.67
2022-08-26T15:49:16.913Z,86.11
2022-08-26T15:51:49.070Z,86.61
2022-08-26T15:54:19.792Z,87.48
2022-08-26T15:56:49.055Z,86.06
2022-08-26T15:59:16.843Z,84.33
2022-08-26T16:01:44.586Z,85.43
2022-08-26T16:04:12.552Z,85.53
2022-08-26T16:06:42.374Z,83.97
2022-08-26T16:09:10.463Z,83.07
2022-08-26T16:11:38.465Z,84.71
2022-08-26T16:14:06.110Z,84.62
2022-08-26T16:16:33.172Z,83.90
2022-08-26T16:19:03.277Z,82.45
2022-08-26T16:21:34.581Z,82.87
2022-08-26T16:24:01.510Z,82.89
2022-08-26T16:26:32.861Z,84.29
2022-08-26T16:29:03.364Z,83.68
2022-08-26T16:31:30.563Z,82.46
2022-08-26T16:33:57.539Z,82.03
2022-08-26T16:36:24.831Z,81.01
2022-08-26T16:38:55.561Z,78.42
2022-08-26T16:41:28.582Z,76.31
2022-08-26T16:43:56.511Z,76.08
2022-08-26T16:46:26.166Z,76.20
2022-08-26T16:48:56.635Z,75.36
2022-08-26T16:51:27.051Z,72.18
2022-08-26T16:53:56.182Z,72.82
2022-08-26T16:56:34.089Z,73.79
2022-08-26T16:59:04.221Z,76.08
2022-08-26T17:01:31.252Z,75.74
2022-08-26T17:03:58.271Z,76.59
2022-08-26T17:06:25.373Z,77.44
2022-08-26T17:08:52.997Z,78.41
2022-08-26T17:11:19.914Z,77.92
2022-08-26T17:13:46.863Z,78.49
2022-08-26T17:16:15.209Z,77.72
2022-08-26T17:18:42.198Z,79.03
2022-08-26T17:21:12.817Z,79.56
2022-08-26T17:23:41.813Z,79.72
2022-08-26T17:26:11.783Z,80.08
2022-08-26T17:28:39.510Z,79.64
2022-08-26T17:31:10.178Z,78.41
2022-08-26T17:33:37.773Z,78.90
2022-08-26T17:36:07.057Z,78.71
2022-08-26T17:38:34.930Z,79.17
2022-08-26T17:41:02.618Z,79.79
2022-08-26T17:43:29.704Z,80.05
2022-08-26T17:46:06.803Z,79.98
2022-08-26T17:48:38.698Z,80.94
2022-08-26T17:51:12.224Z,81.42
2022-08-26T17:53:41.193Z,81.16
2022-08-26T17:56:13.051Z,81.56
2022-08-26T17:58:41.035Z,81.69
2022-08-26T18:01:22.422Z,81.85
2022-08-26T18:03:50.138Z,82.15
2022-08-26T18:06:17.423Z,81.93
2022-08-26T18:08:45.206Z,80.87
2022-08-26T18:11:17.186Z,81.44
2022-08-26T18:13:47.031Z,80.58
2022-08-26T18:16:16.518Z,81.05
2022-08-26T18:18:43.826Z,81.03
2022-08-26T18:21:18.387Z,81.14
2022-08-26T18:23:46.929Z,80.30
2022-08-26T18:26:35.552Z,80.24
2022-08-26T18:29:04.177Z,81.42
2022-08-26T18:31:31.238Z,80.75
2022-08-26T18:34:01.339Z,80.81
2022-08-26T18:36:33.804Z,81.75
2022-08-26T18:39:03.076Z,82.01
2022-08-26T18:41:38.755Z,82.30
2022-08-26T18:44:06.188Z,82.28
2022-08-26T18:46:34.841Z,82.03
2022-08-26T18:49:02.010Z,82.66
2022-08-26T18:51:31.939Z,83.08
2022-08-26T18:54:01.300Z,82.96
2022-08-26T18:56:29.144Z,82.42
2022-08-26T18:58:56.098Z,82.86
2022-08-26T19:01:27.096Z,83.29
2022-08-26T19:03:56.574Z,83.00
2022-08-26T19:06:24.804Z,82.65
2022-08-26T19:08:51.800Z,83.37
2022-08-26T19:11:32.603Z,83.68
2022-08-26T19:14:10.147Z,83.29
2022-08-26T19:16:37.575Z,83.40
2022-08-26T19:19:05.231Z,83.99
2022-08-26T19:21:34.376Z,83.97
2022-08-26T19:24:04.423Z,83.38
2022-08-26T19:26:32.058Z,84.56
2022-08-26T19:28:59.459Z,85.75
2022-08-26T19:31:27.040Z,85.60
2022-08-26T19:33:54.088Z,86.09
2022-08-26T19:36:23.542Z,85.74
2022-08-26T19:38:51.220Z,84.99
2022-08-26T19:41:36.907Z,82.85
2022-08-26T19:44:12.981Z,83.22
2022-08-26T19:46:40.714Z,83.83
2022-08-26T19:49:08.295Z,83.56
2022-08-26T19:51:36.825Z,83.85
2022-08-26T19:54:04.374Z,84.80
2022-08-26T19:56:32.047Z,85.75
2022-08-26T19:58:59.251Z,86.33
2022-08-26T20:01:26.318Z,85.58
2022-08-26T20:03:53.292Z,84.88
2022-08-26T20:06:20.785Z,85.94
2022-08-26T20:08:50.661Z,86.33
2022-08-26T20:11:18.972Z,85.87
2022-08-26T20:13:47.911Z,85.97
2022-08-26T20:16:16.889Z,86.51
2022-08-26T20:19:08.661Z,85.84
2022-08-26T20:21:56.596Z,85.95
2022-08-26T20:24:28.242Z,86.33
2022-08-26T20:26:56.585Z,86.73
2022-08-26T20:29:23.611Z,87.01
2022-08-26T20:31:52.522Z,88.22
2022-08-26T20:34:20.742Z,88.56
2022-08-26T20:36:49.772Z,89.27
2022-08-26T20:39:20.835Z,89.61
2022-08-26T20:41:48.043Z,90.74
2022-08-26T20:44:16.583Z,91.30
2022-08-26T20:46:44.256Z,91.69
2022-08-26T20:49:11.391Z,92.09
2022-08-26T20:51:38.420Z,92.81
2022-08-26T20:54:07.098Z,93.32
2022-08-26T20:56:36.268Z,93.17
2022-08-26T20:59:05.304Z,93.96
2022-08-26T21:01:34.887Z,93.86
2022-08-26T21:04:05.426Z,94.20
2022-08-26T21:06:36.628Z,94.76
2022-08-26T21:09:07.061Z,95.47
2022-08-26T21:11:35.878Z,95.41
2022-08-26T21:14:16.220Z,94.72
2022-08-26T21:16:45.372Z,95.32
2022-08-26T21:19:15.209Z,95.81
2022-08-26T21:21:42.590Z,95.75
2022-08-26T21:24:10.267Z,95.93
2022-08-26T21:26:37.871Z,96.28
2022-08-26T21:29:06.685Z,96.01
2022-08-26T21:31:34.933Z,96.08
2022-08-26T21:34:01.922Z,96.51
2022-08-26T21:36:28.894Z,96.80
2022-08-26T21:38:57.945Z,97.41
2022-08-26T21:41:26.383Z,97.50
2022-08-26T21:43:57.928Z,96.99
2022-08-26T21:46:28.344Z,97.65
2022-08-26T21:49:02.232Z,97.57
2022-08-26T21:51:33.173Z,97.16
2022-08-26T21:54:02.228Z,97.70
2022-08-26T21:56:32.251Z,98.26
2022-08-26T21:59:00.826Z,98.64
2022-08-26T22:01:33.690Z,99.05
2022-08-26T22:04:05.560Z,99.18
2022-08-26T22:06:38.764Z,98.76
2022-08-26T22:09:05.796Z,99.22
2022-08-26T22:11:32.722Z,99.14
2022-08-26T22:13:59.819Z,98.22
2022-08-26T22:16:28.773Z,96.90
2022-08-26T22:18:56.220Z,97.18
2022-08-26T22:21:25.956Z,97.69
2022-08-26T22:23:58.017Z,98.54
2022-08-26T22:26:29.523Z,98.49
2022-08-26T22:28:59.097Z,98.60
2022-08-26T22:31:33.669Z,99.69
2022-08-26T22:34:08.981Z,100.00
2022-08-26T22:36:43.145Z,100.00
2022-08-26T22:39:13.868Z,100.00
2022-08-26T22:41:43.136Z,100.00
2022-08-26T22:44:11.917Z,100.00
2022-08-26T22:46:40.015Z,100.00
2022-08-26T22:49:10.148Z,100.00
2022-08-26T22:51:37.169Z,100.00
2022-08-26T22:54:05.461Z,100.00
2022-08-26T22:56:32.381Z,100.00
2022-08-26T22:58:59.303Z,100.00
2022-08-26T23:01:26.847Z,100.00
2022-08-26T23:03:53.820Z,100.00
2022-08-26T23:06:20.802Z,100.00
2022-08-26T23:08:48.015Z,100.00
2022-08-26T23:11:15.495Z,100.00
2022-08-26T23:13:42.619Z,100.00
2022-08-26T23:16:12.256Z,100.00
2022-08-26T23:18:40.672Z,100.00
2022-08-26T23:21:07.631Z,100.00
2022-08-26T23:23:35.228Z,100.00
2022-08-26T23:26:05.990Z,100.00
2022-08-26T23:28:34.947Z,100.00
2022-08-26T23:31:02.074Z,100.00
2022-08-26T23:33:49.044Z,100.00
2022-08-26T23:36:18.023Z,100.00
2022-08-26T23:38:48.147Z,100.00
2022-08-26T23:41:22.619Z,100.00
2022-08-26T23:43:50.225Z,100.00
2022-08-26T23:46:17.793Z,100.00
2022-08-26T23:48:45.078Z,100.00
2022-08-26T23:51:31.156Z,100.00
2022-08-26T23:53:58.483Z,100.00
2022-08-26T23:56:25.602Z,100.00
2022-08-26T23:58:54.225Z,100.00
